createdAt,value
2019-03-31T00:00:12.257Z,7.54
2019-03-31T00:05:18.266Z,7.37
2019-03-31T00:10:24.235Z,8.00
2019-03-31T00:15:30.299Z,9.41
2019-03-31T00:20:36.299Z,9.89
2019-03-31T00:25:42.278Z,10.51
2019-03-31T00:30:48.249Z,9.23
2019-03-31T00:35:54.304Z,9.27
2019-03-31T00:41:00.292Z,10.18
2019-03-31T00:46:06.292Z,9.76
2019-03-31T00:51:12.290Z,10.03
2019-03-31T00:56:18.276Z,10.22
2019-03-31T01:01:35.892Z,8.98
2019-03-31T01:06:29.728Z,8.99
2019-03-31T01:11:35.709Z,9.50
2019-03-31T01:16:41.693Z,8.49
2019-03-31T01:21:47.640Z,9.44
2019-03-31T01:26:53.641Z,8.11
2019-03-31T01:31:59.714Z,7.65
2019-03-31T01:37:05.693Z,7.67
2019-03-31T01:42:11.681Z,7.18
2019-03-31T01:47:17.719Z,7.24
2019-03-31T01:52:23.702Z,7.09
2019-03-31T01:57:29.661Z,7.74
2019-03-31T02:02:35.683Z,7.90
2019-03-31T02:07:41.665Z,6.45
2019-03-31T02:12:47.627Z,6.53
2019-03-31T02:17:53.602Z,8.50
2019-03-31T02:22:59.580Z,7.30
2019-03-31T02:28:05.582Z,8.59
2019-03-31T02:33:11.605Z,8.61
2019-03-31T02:38:17.720Z,8.30
2019-03-31T02:43:23.597Z,9.54
2019-03-31T02:48:29.601Z,8.70
2019-03-31T02:53:35.573Z,9.60
2019-03-31T02:58:41.556Z,9.94
2019-03-31T03:03:47.653Z,9.67
2019-03-31T03:08:53.602Z,9.72
2019-03-31T03:13:59.575Z,9.92
2019-03-31T03:19:05.566Z,10.20
2019-03-31T03:24:11.544Z,8.99
2019-03-31T03:29:17.517Z,9.14
2019-03-31T03:34:23.487Z,9.23
2019-03-31T03:39:29.466Z,9.79
2019-03-31T03:44:35.525Z,9.25
2019-03-31T03:49:41.536Z,9.34
2019-03-31T03:54:47.497Z,10.30
2019-03-31T03:59:53.468Z,10.07
2019-03-31T04:04:59.440Z,10.41
2019-03-31T04:10:05.457Z,11.52
2019-03-31T04:15:11.431Z,11.55
2019-03-31T04:20:17.452Z,11.09
2019-03-31T04:25:23.414Z,11.49
2019-03-31T04:30:29.386Z,10.78
2019-03-31T04:35:35.350Z,12.41
2019-03-31T04:40:41.306Z,11.23
2019-03-31T04:45:47.315Z,10.67
2019-03-31T04:50:53.307Z,10.86
2019-03-31T04:55:59.304Z,10.79
2019-03-31T05:01:05.234Z,11.13
2019-03-31T05:06:11.189Z,12.15
2019-03-31T05:11:17.159Z,11.82
2019-03-31T05:16:23.138Z,11.69
2019-03-31T05:21:29.090Z,11.78
2019-03-31T05:26:35.064Z,10.27
2019-03-31T05:31:41.039Z,10.17
2019-03-31T05:36:47.013Z,10.78
2019-03-31T05:41:52.993Z,10.61
2019-03-31T05:46:58.977Z,10.19
2019-03-31T05:52:04.946Z,10.40
2019-03-31T05:57:10.954Z,9.93
2019-03-31T06:02:16.976Z,10.20
2019-03-31T06:07:22.949Z,9.49
2019-03-31T06:12:28.953Z,9.55
2019-03-31T06:17:34.902Z,10.09
2019-03-31T06:22:40.851Z,9.12
2019-03-31T06:27:46.822Z,9.20
2019-03-31T06:32:55.449Z,9.08
2019-03-31T06:37:58.331Z,9.03
2019-03-31T06:43:04.307Z,9.02
2019-03-31T06:48:10.318Z,9.58
2019-03-31T06:53:16.345Z,9.51
2019-03-31T06:58:22.556Z,9.84
2019-03-31T07:03:28.517Z,9.93
2019-03-31T07:08:34.510Z,9.97
2019-03-31T07:13:40.479Z,10.08
2019-03-31T07:18:46.420Z,9.44
2019-03-31T07:23:52.398Z,9.40
2019-03-31T07:28:58.380Z,10.07
2019-03-31T07:34:04.338Z,9.31
2019-03-31T07:39:10.380Z,9.11
2019-03-31T07:44:16.340Z,8.96
2019-03-31T07:49:22.309Z,9.72
2019-03-31T07:54:28.378Z,8.90
2019-03-31T07:59:34.334Z,16.64
2019-03-31T08:04:40.285Z,9.82
2019-03-31T08:09:46.323Z,9.40
2019-03-31T08:14:52.334Z,9.61
2019-03-31T08:19:58.309Z,10.23
2019-03-31T08:25:04.316Z,10.95
2019-03-31T08:30:10.307Z,10.27
2019-03-31T08:35:16.314Z,11.47
2019-03-31T08:40:22.379Z,11.10
2019-03-31T08:45:30.434Z,12.25
2019-03-31T08:50:34.930Z,12.41
2019-03-31T08:55:39.459Z,11.98
2019-03-31T09:00:45.450Z,11.05
2019-03-31T09:06:01.468Z,12.00
2019-03-31T09:10:56.984Z,12.54
2019-03-31T09:16:03.068Z,13.62
2019-03-31T09:21:09.054Z,12.62
2019-03-31T09:26:15.190Z,14.28
2019-03-31T09:31:21.286Z,14.89
2019-03-31T09:36:27.316Z,16.27
2019-03-31T09:41:33.374Z,18.14
2019-03-31T09:46:39.420Z,20.01
2019-03-31T09:51:45.412Z,21.07
2019-03-31T09:56:51.625Z,24.28
2019-03-31T10:01:57.688Z,25.69
2019-03-31T10:07:03.661Z,27.99
2019-03-31T10:12:09.681Z,26.44
2019-03-31T10:17:15.711Z,27.48
2019-03-31T10:22:21.786Z,31.53
2019-03-31T10:27:27.770Z,30.68
2019-03-31T10:32:33.771Z,31.81
2019-03-31T10:37:39.765Z,30.02
2019-03-31T10:42:45.748Z,27.12
2019-03-31T10:47:51.732Z,26.60
2019-03-31T10:52:57.771Z,26.95
2019-03-31T10:58:03.755Z,24.42
2019-03-31T11:03:09.743Z,23.70
2019-03-31T11:08:15.724Z,23.52
2019-03-31T11:13:21.715Z,26.59
2019-03-31T11:18:27.785Z,26.26
2019-03-31T11:23:33.764Z,26.20
2019-03-31T11:28:39.792Z,28.46
2019-03-31T11:33:45.783Z,27.65
2019-03-31T11:38:51.827Z,28.22
2019-03-31T11:43:57.795Z,28.31
2019-03-31T11:49:03.834Z,25.64
2019-03-31T11:54:09.883Z,27.60
2019-03-31T11:59:15.869Z,26.71
2019-03-31T12:04:22.328Z,26.34
2019-03-31T12:09:28.360Z,23.98
2019-03-31T12:14:34.422Z,23.80
2019-03-31T12:19:40.499Z,24.44
2019-03-31T12:24:46.523Z,24.21
2019-03-31T12:29:52.547Z,39.32
2019-03-31T12:34:58.935Z,24.83
2019-03-31T12:40:05.193Z,22.69
2019-03-31T12:45:11.266Z,25.78
2019-03-31T12:50:17.345Z,22.24
2019-03-31T12:55:23.356Z,21.35
2019-03-31T13:00:29.447Z,20.06
2019-03-31T13:05:35.449Z,21.68
2019-03-31T13:10:41.489Z,19.18
2019-03-31T13:15:47.461Z,19.65
2019-03-31T13:20:53.440Z,16.56
2019-03-31T13:25:59.556Z,16.45
2019-03-31T13:31:05.521Z,16.01
2019-03-31T13:36:11.500Z,15.73
2019-03-31T13:41:17.525Z,29.22
2019-03-31T13:46:23.536Z,15.01
2019-03-31T13:51:29.670Z,15.77
2019-03-31T13:56:36.239Z,11.97
2019-03-31T14:01:41.119Z,14.33
2019-03-31T14:06:47.137Z,13.27
2019-03-31T14:11:53.164Z,14.07
2019-03-31T14:16:59.188Z,14.41
2019-03-31T14:22:05.261Z,13.55
2019-03-31T14:27:11.293Z,13.57
2019-03-31T14:32:17.293Z,14.76
2019-03-31T14:37:23.292Z,13.71
2019-03-31T14:42:29.368Z,13.78
2019-03-31T14:47:35.358Z,13.74
2019-03-31T14:52:41.361Z,14.47
2019-03-31T14:57:47.341Z,14.65
2019-03-31T15:02:53.307Z,14.81
2019-03-31T15:07:59.317Z,14.55
2019-03-31T15:13:05.323Z,13.28
2019-03-31T15:18:11.332Z,11.95
2019-03-31T15:23:17.318Z,14.23
2019-03-31T15:28:23.334Z,13.60
2019-03-31T15:33:29.338Z,14.21
2019-03-31T15:38:35.446Z,13.90
2019-03-31T15:43:41.486Z,13.61
2019-03-31T15:48:47.526Z,11.96
2019-03-31T15:53:53.518Z,12.64
2019-03-31T15:58:59.539Z,12.98
2019-03-31T16:04:05.575Z,12.71
2019-03-31T16:09:22.852Z,11.78
2019-03-31T16:14:17.172Z,12.72
2019-03-31T16:19:23.225Z,12.21
2019-03-31T16:24:29.198Z,12.75
2019-03-31T16:29:35.227Z,12.99
2019-03-31T16:34:41.262Z,11.55
2019-03-31T16:39:47.267Z,10.43
2019-03-31T16:44:58.477Z,11.53
2019-03-31T16:49:58.800Z,10.82
2019-03-31T16:55:04.808Z,13.24
2019-03-31T17:00:10.842Z,11.87
2019-03-31T17:05:21.993Z,11.71
2019-03-31T17:10:22.601Z,9.88
2019-03-31T17:15:28.852Z,10.04
2019-03-31T17:20:34.855Z,8.05
2019-03-31T17:25:40.831Z,8.45
2019-03-31T17:30:46.886Z,7.35
2019-03-31T17:35:52.889Z,8.92
2019-03-31T17:40:58.941Z,7.49
2019-03-31T17:46:04.931Z,6.65
2019-03-31T17:51:10.953Z,6.31
2019-03-31T17:56:16.980Z,6.08
2019-03-31T18:01:22.945Z,6.47
2019-03-31T18:06:28.956Z,5.37
2019-03-31T18:11:35.033Z,5.44
2019-03-31T18:16:41.041Z,4.90
2019-03-31T18:21:47.112Z,5.11
2019-03-31T18:26:53.267Z,5.58
2019-03-31T18:31:59.442Z,5.35
2019-03-31T18:37:05.432Z,4.65
2019-03-31T18:42:11.611Z,4.95
2019-03-31T18:47:17.632Z,4.75
2019-03-31T18:52:23.681Z,6.57
2019-03-31T18:57:29.749Z,4.76
2019-03-31T19:02:35.752Z,4.64
2019-03-31T19:07:41.890Z,5.45
2019-03-31T19:12:47.964Z,4.42
2019-03-31T19:17:54.065Z,4.76
2019-03-31T19:23:00.031Z,4.18
2019-03-31T19:28:06.162Z,4.54
2019-03-31T19:33:12.261Z,4.42
2019-03-31T19:38:18.325Z,4.65
2019-03-31T19:43:24.386Z,4.66
2019-03-31T19:48:30.415Z,4.53
2019-03-31T19:53:36.539Z,4.87
2019-03-31T19:58:42.671Z,4.54
2019-03-31T20:03:48.662Z,5.29
2019-03-31T20:08:54.678Z,5.12
2019-03-31T20:14:00.720Z,4.94
2019-03-31T20:19:06.887Z,3.93
2019-03-31T20:24:12.891Z,4.54
2019-03-31T20:29:18.969Z,4.30
2019-03-31T20:34:24.981Z,4.01
2019-03-31T20:39:31.001Z,3.97
2019-03-31T20:44:37.028Z,4.99
2019-03-31T20:49:43.113Z,4.33
2019-03-31T20:54:49.122Z,4.08
2019-03-31T20:59:55.232Z,4.71
2019-03-31T21:05:01.247Z,4.81
2019-03-31T21:10:07.280Z,5.29
2019-03-31T21:15:13.407Z,4.94
2019-03-31T21:20:19.523Z,8.77
2019-03-31T21:25:26.109Z,3.92
2019-03-31T21:30:32.174Z,4.61
2019-03-31T21:35:38.146Z,4.31
2019-03-31T21:40:44.222Z,4.07
2019-03-31T21:45:50.400Z,4.42
2019-03-31T21:50:56.367Z,4.14
2019-03-31T21:56:02.420Z,3.79
2019-03-31T22:01:08.426Z,3.57
2019-03-31T22:06:14.580Z,4.28
2019-03-31T22:11:20.578Z,4.11
2019-03-31T22:16:26.802Z,4.15
2019-03-31T22:21:32.797Z,4.13
2019-03-31T22:26:38.735Z,3.99
2019-03-31T22:31:44.700Z,3.77
2019-03-31T22:36:50.654Z,4.23
2019-03-31T22:41:56.607Z,3.47
2019-03-31T22:47:02.610Z,4.50
2019-03-31T22:52:08.578Z,4.64
2019-03-31T22:57:14.842Z,4.97
2019-03-31T23:02:20.811Z,5.47
2019-03-31T23:07:26.937Z,4.08
2019-03-31T23:12:33.132Z,3.46
2019-03-31T23:17:39.390Z,4.05
2019-03-31T23:22:45.393Z,3.88
2019-03-31T23:27:51.496Z,4.14
2019-03-31T23:32:57.574Z,3.91
2019-03-31T23:38:03.672Z,3.85
2019-03-31T23:43:09.629Z,4.22
2019-03-31T23:48:15.664Z,4.52
2019-03-31T23:53:21.706Z,4.51
2019-03-31T23:58:27.665Z,3.89
